Time;durP1;ratioP1;P1;durP2;ratioP2;P2;SDS_P1;SDS_P2;PMS_P1;PMS_P2;Temp;Humidity;BMP_temperature;BMP_pressure;BME280_temperature;BME280_humidity;BME280_pressure;Samples;Min_cycle;Max_cycle;Signal;HPM_P1;HPM_P2
2024/01/29 00:01:19;;;;;;;45.10;20.90;;;;;;;1.93;79.40;101214.17;109598;1235;96539;-77
2024/01/29 00:03:49;;;;;;;44.60;22.50;;;;;;;1.95;79.09;101218.55;108924;1235;96355;-76
2024/01/29 00:06:16;;;;;;;;;;;;;;;1.92;79.50;101220.30;108272;1239;96657;-76
2024/01/29 00:08:42;;;;;;;34.60;17.70;;;;;;;1.92;79.64;101219.59;108388;1235;96587;-77
2024/01/29 00:11:09;;;;;;;38.50;19.20;;;;;;;1.95;79.73;101221.34;109128;1232;96573;-77
2024/01/29 00:13:35;;;;;;;;;;;;;;;1.95;79.52;101218.36;108469;1235;96611;-77
2024/01/29 00:16:02;;;;;;;33.20;16.40;;;;;;;1.93;79.32;101215.75;108308;1237;107500;-77
2024/01/29 00:18:29;;;;;;;29.10;16.80;;;;;;;1.92;79.54;101217.50;109573;1235;96575;-77
2024/01/29 00:20:57;;;;;;;;;;;;;;;1.92;79.45;101214.69;111169;1232;94425;-75
2024/01/29 00:23:24;;;;;;;24.20;12.30;;;;;;;1.90;79.36;101213.64;111399;1232;95027;-75
2024/01/29 00:25:50;;;;;;;25.60;12.80;;;;;;;1.89;79.26;101209.11;109632;1232;97015;-78
2024/01/29 00:28:17;;;;;;;21.90;10.80;;;;;;;1.87;79.13;101216.98;108236;1235;96677;-76
2024/01/29 00:30:44;;;;;;;21.50;11.80;;;;;;;1.87;79.37;101220.48;108980;1232;96681;-76
2024/01/29 00:33:11;;;;;;;22.10;11.80;;;;;;;1.88;79.29;101222.58;108567;1235;109819;-77
2024/01/29 00:35:38;;;;;;;21.90;11.90;;;;;;;1.90;79.38;101225.02;108227;1232;96576;-77
2024/01/29 00:38:05;;;;;;;25.60;12.40;;;;;;;1.89;79.50;101226.95;109080;1235;96575;-78
2024/01/29 00:40:33;;;;;;;23.00;11.90;;;;;;;1.87;79.25;101233.26;108458;1232;96621;-77
2024/01/29 00:43:00;;;;;;;21.20;11.50;;;;;;;1.83;79.45;101242.36;108426;1235;96558;-77
2024/01/29 00:45:27;;;;;;;20.20;11.60;;;;;;;1.78;79.31;101247.63;108259;1235;96697;-76
2024/01/29 00:47:54;;;;;;;23.90;13.20;;;;;;;1.76;79.23;101249.38;109022;1238;96563;-76
2024/01/29 00:50:21;;;;;;;22.30;12.50;;;;;;;1.75;79.18;101249.21;108682;1237;97508;-77
2024/01/29 00:52:47;;;;;;;;;;;;;;;1.74;79.31;101251.48;110443;1232;96488;-78
2024/01/29 00:55:14;;;;;;;25.20;12.20;;;;;;;1.70;79.36;101257.59;108470;1235;109843;-77
2024/01/29 00:57:40;;;;;;;25.70;12.30;;;;;;;1.66;79.32;101260.20;110446;1232;96593;-77
2024/01/29 01:00:08;;;;;;;27.10;15.20;;;;;;;1.61;78.97;101262.34;108597;1235;96510;-77
2024/01/29 01:02:35;;;;;;;26.50;13.30;;;;;;;1.59;79.11;101261.45;109098;1238;96677;-77
2024/01/29 01:05:02;;;;;;;25.60;12.50;;;;;;;1.58;79.47;101260.23;109084;1235;137695;-76
2024/01/29 01:07:29;;;;;;;26.00;13.50;;;;;;;1.58;79.27;101257.61;108582;1239;97005;-76
2024/01/29 01:09:56;;;;;;;26.80;13.30;;;;;;;1.55;79.00;101252.71;108976;1232;97258;-76
2024/01/29 01:12:22;;;;;;;;;;;;;;;1.49;79.25;101243.10;108529;1235;96608;-76
2024/01/29 01:14:49;;;;;;;26.30;13.30;;;;;;;1.46;79.03;101239.41;110877;1235;94329;-77
2024/01/29 01:17:15;;;;;;;26.30;13.50;;;;;;;1.46;79.48;101242.92;111448;1231;94332;-77
2024/01/29 01:19:42;;;;;;;26.00;13.50;;;;;;;1.43;79.05;101239.59;111540;1231;94481;-75
2024/01/29 01:22:09;;;;;;;26.60;12.00;;;;;;;1.41;79.50;101242.92;111507;1232;94709;-75
2024/01/29 01:24:36;;;;;;;24.40;13.60;;;;;;;1.39;79.15;101237.15;111517;1232;94537;-75
2024/01/29 01:27:03;;;;;;;23.70;12.50;;;;;;;1.37;79.14;101239.77;111055;1232;94285;-75
2024/01/29 01:29:29;;;;;;;25.40;13.40;;;;;;;1.36;79.26;101241.17;107793;1236;96653;-77
2024/01/29 01:31:56;;;;;;;29.90;13.30;;;;;;;1.35;78.99;101239.25;108210;1237;96603;-77
2024/01/29 01:34:23;;;;;;;26.90;14.40;;;;;;;1.34;79.12;101242.73;108269;1235;97795;-77
2024/01/29 01:36:49;;;;;;;24.80;13.20;;;;;;;1.33;78.99;101244.66;109355;1233;97481;-77
2024/01/29 01:39:16;;;;;;;22.90;11.80;;;;;;;1.36;79.67;101242.73;108220;1235;97400;-76
2024/01/29 01:41:52;;;;;;;22.10;11.70;;;;;;;1.37;79.46;101240.65;108199;1246;107457;-77
2024/01/29 01:44:18;;;;;;;23.00;11.60;;;;;;;1.37;79.30;101238.56;110298;1232;96618;-77
2024/01/29 01:46:45;;;;;;;22.90;11.50;;;;;;;1.39;79.39;101236.29;108578;1235;97799;-77
2024/01/29 01:49:12;;;;;;;20.90;11.60;;;;;;;1.43;79.32;101232.95;108929;1232;97092;-77
2024/01/29 01:51:39;;;;;;;22.50;11.60;;;;;;;1.44;79.48;101227.88;108709;1232;96623;-77
2024/01/29 01:54:08;;;;;;;21.70;11.70;;;;;;;1.44;79.41;101232.08;108463;1235;96677;-77
2024/01/29 01:56:38;;;;;;;21.50;11.80;;;;;;;1.42;79.45;101230.68;108318;1235;97906;-77
2024/01/29 01:59:07;;;;;;;22.80;11.80;;;;;;;1.43;79.41;101233.65;110798;1232;94702;-75
2024/01/29 02:01:34;;;;;;;19.80;11.70;;;;;;;1.44;79.49;101234.35;108344;1236;109023;-75
2024/01/29 02:04:00;;;;;;;24.50;12.20;;;;;;;1.45;79.53;101236.45;109277;1235;97515;-75
2024/01/29 02:06:28;;;;;;;21.40;11.80;;;;;;;1.46;79.35;101230.85;108514;1235;97550;-75
2024/01/29 02:08:54;;;;;;;21.80;12.80;;;;;;;1.49;79.33;101232.08;110558;1233;96653;-75
2024/01/29 02:11:21;;;;;;;28.40;13.40;;;;;;;1.54;79.42;101234.52;109259;1235;97186;-76
2024/01/29 02:13:48;;;;;;;29.50;14.70;;;;;;;1.56;79.49;101233.48;108319;1236;96595;-77
2024/01/29 02:16:14;;;;;;;25.00;13.70;;;;;;;1.58;79.67;101227.70;108423;1235;97518;-77
2024/01/29 02:18:41;;;;;;;30.70;15.30;;;;;;;1.59;79.56;101228.75;108218;1235;96590;-76
2024/01/29 02:21:07;;;;;;;;;;;;;;;1.57;79.24;101224.73;109757;1232;96595;-76
2024/01/29 02:23:34;;;;;;;25.30;12.80;;;;;;;1.55;79.29;101222.98;111057;1231;97688;-76
2024/01/29 02:26:02;;;;;;;26.90;14.30;;;;;;;1.57;79.53;101220.88;108233;1235;96708;-75
2024/01/29 02:28:28;;;;;;;25.80;13.40;;;;;;;1.59;79.36;101226.48;108477;1235;97749;-75
2024/01/29 02:30:55;;;;;;;28.00;13.70;;;;;;;1.59;79.46;101225.44;110276;1235;94415;-75
2024/01/29 02:33:21;;;;;;;31.10;15.20;;;;;;;1.60;79.37;101220.88;108541;1235;109417;-76
2024/01/29 02:35:48;;;;;;;28.40;14.80;;;;;;;1.60;79.39;101220.36;108273;1244;96506;-76
2024/01/29 02:38:15;;;;;;;;;;;;;;;1.60;79.21;101219.65;109667;1232;96571;-76
2024/01/29 02:40:41;;;;;;;30.10;13.90;;;;;;;1.60;79.67;101216.69;109531;1232;96579;-77
2024/01/29 02:43:08;;;;;;;31.70;15.30;;;;;;;1.61;79.61;101217.21;108944;1235;96671;-76
2024/01/29 02:45:34;;;;;;;30.00;15.50;;;;;;;1.62;79.29;101213.89;108224;1233;96567;-76
2024/01/29 02:48:01;;;;;;;;;;;;;;;1.61;79.45;101206.20;109075;1233;96597;-77
2024/01/29 02:50:29;;;;;;;28.50;14.90;;;;;;;1.59;79.67;101205.67;110808;1232;97765;-77
2024/01/29 02:52:56;;;;;;;31.40;14.90;;;;;;;1.59;79.50;101207.23;109638;1232;96568;-78
2024/01/29 02:55:22;;;;;;;29.30;14.70;;;;;;;1.60;79.35;101204.79;108514;1243;97774;-78
2024/01/29 02:57:49;;;;;;;27.60;14.20;;;;;;;1.61;79.57;101199.20;108996;1235;96653;-77
2024/01/29 03:00:15;;;;;;;;;;;;;;;1.61;79.39;101198.67;108354;1237;96686;-80
2024/01/29 03:02:42;;;;;;;27.00;12.80;;;;;;;1.61;79.35;101203.05;108210;1236;96564;-77
2024/01/29 03:05:08;;;;;;;23.40;13.20;;;;;;;1.59;79.38;101199.20;108944;1233;97816;-77
2024/01/29 03:07:35;;;;;;;26.60;13.80;;;;;;;1.58;79.49;101201.83;108480;1237;97518;-77
2024/01/29 03:10:01;;;;;;;30.70;14.40;;;;;;;1.59;79.42;101199.72;111231;1232;96046;-77
2024/01/29 03:12:28;;;;;;;;;;;;;;;1.58;79.52;101195.17;111357;1235;94404;-75
2024/01/29 03:14:54;;;;;;;19.80;9.70;;;;;;;1.57;79.53;101192.20;111290;1232;94892;-75
2024/01/29 03:17:21;;;;;;;;;;;;;;;1.57;79.22;101192.89;108390;1235;97486;-76
2024/01/29 03:19:47;;;;;;;19.60;10.30;;;;;;;1.56;79.32;101195.34;109020;1233;96577;-77
2024/01/29 03:22:14;;;;;;;19.00;11.50;;;;;;;1.54;79.25;101195.18;108657;1236;96600;-78
2024/01/29 03:24:41;;;;;;;23.50;13.20;;;;;;;1.52;79.28;101199.73;108728;1239;109782;-77
2024/01/29 03:27:07;;;;;;;23.50;13.30;;;;;;;1.51;79.23;101197.80;108232;1234;97089;-76
2024/01/29 03:29:34;;;;;;;22.40;13.60;;;;;;;1.50;79.40;101194.65;108722;1232;97499;-77
2024/01/29 03:32:02;;;;;;;23.80;11.80;;;;;;;1.48;79.50;101198.67;111202;1232;94456;-77
2024/01/29 03:34:28;;;;;;;22.40;11.90;;;;;;;1.46;79.54;101197.80;109913;1233;96511;-76
2024/01/29 03:36:55;;;;;;;21.40;12.30;;;;;;;1.44;78.99;101199.20;108544;1232;96573;-76
2024/01/29 03:39:21;;;;;;;22.00;11.50;;;;;;;1.43;79.13;101204.27;109458;1232;96588;-77
2024/01/29 03:41:48;;;;;;;22.30;12.00;;;;;;;1.43;79.22;101195.00;109242;1235;96995;-77
2024/01/29 03:44:15;;;;;;;19.80;10.10;;;;;;;1.42;79.41;101183.83;108895;1232;97057;-75
2024/01/29 03:46:43;;;;;;;25.50;10.60;;;;;;;1.42;79.19;101185.58;109911;1232;96600;-77
2024/01/29 03:49:09;;;;;;;17.30;9.90;;;;;;;1.40;79.18;101180.34;108875;1232;96590;-76
2024/01/29 03:51:36;;;;;;;16.60;8.60;;;;;;;1.39;78.97;101178.59;111165;1232;94833;-77
2024/01/29 03:54:02;;;;;;;16.50;8.60;;;;;;;1.37;79.30;101183.31;109143;1231;96625;-77
2024/01/29 03:56:29;;;;;;;17.20;9.10;;;;;;;1.37;79.06;101184.02;108358;1244;96509;-76
2024/01/29 03:58:55;;;;;;;11.80;7.90;;;;;;;1.37;79.19;101185.77;108421;1235;97484;-77
2024/01/29 04:01:28;;;;;;;16.90;9.50;;;;;;;1.38;79.08;101184.70;108967;1235;97812;-78
2024/01/29 04:03:55;;;;;;;12.60;7.10;;;;;;;1.38;78.88;101183.84;108356;1235;97151;-75
2024/01/29 04:06:22;;;;;;;13.30;6.90;;;;;;;1.38;79.25;101181.73;110244;1233;96622;-76
2024/01/29 04:08:49;;;;;;;12.60;6.40;;;;;;;1.36;79.07;101182.27;108278;1234;96571;-76
2024/01/29 04:11:15;;;;;;;10.80;6.00;;;;;;;1.33;79.02;101180.33;109613;1232;96661;-76
2024/01/29 04:13:42;;;;;;;9.70;5.20;;;;;;;1.34;79.23;101182.96;108226;1244;96577;-76
2024/01/29 04:16:10;;;;;;;9.10;4.60;;;;;;;1.34;78.95;101182.95;108247;1237;96545;-76
2024/01/29 04:18:40;;;;;;;9.60;5.60;;;;;;;1.37;79.12;101182.79;108394;1237;109927;-76
2024/01/29 04:21:07;;;;;;;6.10;4.00;;;;;;;1.38;78.91;101184.70;109115;1231;97488;-76
2024/01/29 04:23:35;;;;;;;8.20;4.40;;;;;;;1.40;79.12;101189.27;108130;1237;96565;-77
2024/01/29 04:26:02;;;;;;;7.40;4.20;;;;;;;1.40;79.26;101186.63;110270;1235;96570;-75
2024/01/29 04:28:28;;;;;;;7.80;4.70;;;;;;;1.40;79.38;101184.19;108493;1235;96597;-75
2024/01/29 04:30:55;;;;;;;8.90;4.50;;;;;;;1.43;79.30;101188.89;110100;1232;96510;-76
2024/01/29 04:33:21;;;;;;;9.80;5.30;;;;;;;1.45;79.37;101192.38;108616;1236;97854;-75
2024/01/29 04:35:48;;;;;;;;;;;;;;;1.46;79.02;101190.45;108533;1232;96633;-77
2024/01/29 04:38:14;;;;;;;8.80;4.70;;;;;;;1.46;79.18;101191.17;108391;1233;97692;-75
2024/01/29 04:40:42;;;;;;;7.80;4.70;;;;;;;1.45;79.08;101193.42;108366;1232;96996;-75
2024/01/29 04:43:08;;;;;;;10.30;5.20;;;;;;;1.46;79.26;101190.46;108956;1232;96581;-76
2024/01/29 04:45:35;;;;;;;8.00;5.30;;;;;;;1.47;79.00;101186.44;110315;1232;96490;-72
2024/01/29 04:48:02;;;;;;;9.30;4.60;;;;;;;1.50;79.40;101189.58;109063;1235;96664;-74
2024/01/29 04:50:29;;;;;;;7.40;4.80;;;;;;;1.50;79.14;101192.73;108884;1233;96941;-73
2024/01/29 04:52:55;;;;;;;8.50;4.70;;;;;;;1.49;79.31;101199.54;110434;1233;97099;-73
2024/01/29 04:55:22;;;;;;;9.30;5.00;;;;;;;1.50;79.32;101203.05;107902;1236;107877;-74
2024/01/29 04:57:49;;;;;;;;;;;;;;;1.51;79.12;101204.45;108556;1235;96578;-74
2024/01/29 05:00:16;;;;;;;10.40;5.50;;;;;;;1.49;79.15;101209.34;108039;1245;96661;-75
2024/01/29 05:02:43;;;;;;;9.30;5.20;;;;;;;1.48;79.16;101210.91;108144;1235;97066;-75
2024/01/29 05:05:09;;;;;;;;;;;;;;;1.49;79.03;101214.07;108494;1246;96696;-76
2024/01/29 05:07:36;;;;;;;8.70;5.30;;;;;;;1.49;79.03;101214.59;108668;1235;97461;-77
2024/01/29 05:10:02;;;;;;;11.10;5.30;;;;;;;1.50;79.00;101213.55;108286;1232;96610;-77
2024/01/29 05:12:30;;;;;;;8.70;5.40;;;;;;;1.50;79.11;101217.73;108214;1231;96660;-77
2024/01/29 05:14:57;;;;;;;13.20;6.40;;;;;;;1.52;79.30;101217.91;109710;1232;96590;-75
2024/01/29 05:17:24;;;;;;;10.50;5.90;;;;;;;1.51;79.14;101215.80;110410;1232;96569;-77
2024/01/29 05:19:50;;;;;;;10.60;5.80;;;;;;;1.50;78.84;101218.08;108627;1235;96589;-76
2024/01/29 05:22:17;;;;;;;12.00;6.30;;;;;;;1.51;79.06;101215.29;108819;1235;97469;-77
2024/01/29 05:24:44;;;;;;;10.80;5.80;;;;;;;1.53;79.00;101216.34;108649;1233;97105;-76
2024/01/29 05:27:10;;;;;;;11.60;7.10;;;;;;;1.53;79.00;101209.17;108248;1234;108318;-76
2024/01/29 05:29:36;;;;;;;11.00;6.10;;;;;;;1.56;79.01;101205.31;109658;1232;96562;-76
2024/01/29 05:32:03;;;;;;;13.60;7.10;;;;;;;1.56;78.90;101201.64;109125;1232;96487;-77
2024/01/29 05:34:30;;;;;;;12.30;6.10;;;;;;;1.56;78.70;101198.84;108771;1235;97422;-76
2024/01/29 05:36:57;;;;;;;9.20;5.10;;;;;;;1.56;78.92;101195.17;108398;1236;97093;-76
2024/01/29 05:39:23;;;;;;;9.20;5.90;;;;;;;1.55;79.28;101195.53;111068;1232;94699;-77
2024/01/29 05:41:50;;;;;;;9.30;5.50;;;;;;;1.54;78.77;101189.59;111341;1232;94548;-77
2024/01/29 05:44:16;;;;;;;10.30;5.90;;;;;;;1.54;79.03;101186.78;109243;1233;96660;-77
2024/01/29 05:46:43;;;;;;;10.50;5.80;;;;;;;1.56;78.96;101187.66;108615;1232;96590;-75
2024/01/29 05:49:09;;;;;;;9.90;5.50;;;;;;;1.56;79.03;101181.88;108598;1234;96628;-75
2024/01/29 05:51:36;;;;;;;10.60;5.60;;;;;;;1.55;79.01;101183.11;111413;1234;94317;-76
2024/01/29 05:54:03;;;;;;;10.60;6.40;;;;;;;1.53;78.77;101181.71;109165;1233;97912;-75
2024/01/29 05:56:29;;;;;;;11.10;6.00;;;;;;;1.52;78.96;101178.04;108340;1235;96620;-75
2024/01/29 05:58:55;;;;;;;13.10;6.90;;;;;;;1.51;79.11;101178.56;108346;1236;97517;-76
2024/01/29 06:01:22;;;;;;;11.10;5.80;;;;;;;1.48;78.97;101175.94;111180;1232;94701;-77
2024/01/29 06:03:51;;;;;;;10.50;5.40;;;;;;;1.45;79.03;101175.25;108614;1237;97973;-80
2024/01/29 06:06:18;;;;;;;10.10;4.50;;;;;;;1.43;78.61;101181.36;111064;1231;95088;-80
2024/01/29 06:08:48;;;;;;;9.80;4.80;;;;;;;1.42;78.66;101180.16;111187;1232;107506;-80
2024/01/29 06:11:17;;;;;;;7.90;4.60;;;;;;;1.42;78.76;101183.48;110523;1235;96568;-80
2024/01/29 06:13:43;;;;;;;5.70;3.80;;;;;;;1.42;78.80;101184.88;108669;1231;96548;-80
2024/01/29 06:16:10;;;;;;;7.10;3.90;;;;;;;1.41;78.87;101185.06;111126;1231;96600;-81
2024/01/29 06:18:37;;;;;;;9.70;4.40;;;;;;;1.40;78.76;101186.10;108335;1235;96613;-80
2024/01/29 06:21:05;;;;;;;6.80;4.00;;;;;;;1.37;78.55;101189.26;110508;1233;97485;-75
2024/01/29 06:24:04;;;;;;;;;;;;;;;;;;;;;
2024/01/29 06:27:07;;;;;;;8.50;3.40;;;;;;;1.29;78.64;101192.39;107964;1241;96585;-73
2024/01/29 06:29:38;;;;;;;7.20;3.80;;;;;;;1.26;78.43;101188.38;108914;1235;108783;-81
2024/01/29 06:32:05;;;;;;;4.50;3.30;;;;;;;1.22;78.52;101183.48;108357;1232;96600;-78
2024/01/29 06:34:34;;;;;;;5.90;3.20;;;;;;;1.17;78.60;101179.98;109442;1235;96639;-80
2024/01/29 06:37:01;;;;;;;7.30;4.20;;;;;;;1.14;78.40;101176.31;108685;1235;96576;-84
2024/01/29 06:39:28;;;;;;;;;;;;;;;1.10;78.50;101171.23;110065;1231;96655;-82
2024/01/29 06:41:57;;;;;;;6.40;3.70;;;;;;;1.06;78.44;101171.94;108986;1235;97807;-83
2024/01/29 06:44:23;;;;;;;7.00;3.80;;;;;;;1.04;78.56;101170.02;108771;1235;97478;-83
2024/01/29 06:46:51;;;;;;;5.60;3.40;;;;;;;1.02;78.37;101171.59;109763;1235;107722;-84
2024/01/29 06:49:30;;;;;;;6.70;3.80;;;;;;;1.00;78.36;101171.44;109412;1235;96559;-82
2024/01/29 06:52:00;;;;;;;6.50;4.00;;;;;;;0.95;78.42;101172.47;109909;1233;96503;-84
2024/01/29 06:54:30;;;;;;;6.70;3.60;;;;;;;0.93;78.54;101171.94;109402;1236;96572;-85
2024/01/29 06:56:59;;;;;;;6.70;3.40;;;;;;;0.92;78.46;101172.11;110608;1232;96632;-81
2024/01/29 06:59:54;;;;;;;6.50;4.00;;;;;;;0.91;78.33;101174.21;111019;1232;108320;-78
2024/01/29 07:02:47;;;;;;;5.40;3.30;;;;;;;0.87;78.47;101178.40;110306;1235;96632;-81
2024/01/29 07:05:25;;;;;;;6.90;3.70;;;;;;;0.86;78.40;101177.88;108341;1235;96600;-78
2024/01/29 07:08:11;;;;;;;;;;;;;;;;;;;;;
2024/01/29 07:11:29;;;;;;;9.00;4.10;;;;;;;0.87;78.54;101175.09;109419;1242;98164;-76
2024/01/29 07:15:46;;;;;;;;;;;;;;;;;;;;;
2024/01/29 07:18:18;;;;;;;8.70;4.30;;;;;;;0.92;78.47;101174.04;109678;1232;96647;-83
2024/01/29 07:20:49;;;;;;;10.20;5.00;;;;;;;0.96;78.55;101172.11;108895;1232;97059;-81
2024/01/29 07:23:16;;;;;;;11.00;4.90;;;;;;;1.00;78.31;101169.50;108926;1236;109552;-80
2024/01/29 07:25:42;;;;;;;9.00;4.40;;;;;;;1.03;78.70;101168.98;108409;1235;96584;-82
2024/01/29 07:28:09;;;;;;;7.30;3.90;;;;;;;1.04;78.35;101168.63;109478;1233;96606;-80
2024/01/29 07:30:36;;;;;;;10.60;5.20;;;;;;;1.07;78.58;101170.02;108589;1233;96634;-83
2024/01/29 07:33:03;;;;;;;12.50;5.30;;;;;;;1.08;78.33;101175.96;108898;1232;96595;-83
2024/01/29 07:35:30;;;;;;;10.60;5.70;;;;;;;1.11;78.45;101175.79;110056;1233;96507;-84
2024/01/29 07:37:57;;;;;;;9.30;4.90;;;;;;;1.15;78.50;101173.17;108526;1236;96593;-83
2024/01/29 07:40:23;;;;;;;9.70;5.40;;;;;;;1.18;78.55;101174.05;108240;1238;96596;-84
2024/01/29 07:42:52;;;;;;;10.30;5.70;;;;;;;1.21;78.27;101171.95;109084;1235;96516;-83
2024/01/29 07:45:18;;;;;;;9.40;5.40;;;;;;;1.23;78.46;101174.73;108482;1233;96572;-84
2024/01/29 07:47:45;;;;;;;13.10;5.10;;;;;;;1.24;78.46;101174.91;108781;1232;96654;-84
2024/01/29 07:50:14;;;;;;;8.40;4.70;;;;;;;1.25;78.57;101186.45;108446;1235;96594;-84
2024/01/29 07:52:42;;;;;;;7.70;4.50;;;;;;;1.29;78.53;101190.13;108504;1232;96594;-84
2024/01/29 07:55:08;;;;;;;7.90;4.20;;;;;;;1.34;78.54;101191.88;108415;1236;96645;-83
2024/01/29 07:57:40;;;;;;;9.40;4.40;;;;;;;1.38;78.37;101194.31;108440;1232;96929;-83
2024/01/29 08:00:07;;;;;;;7.30;4.00;;;;;;;1.41;78.42;101186.98;108991;1232;96643;-83
2024/01/29 08:02:34;;;;;;;7.70;4.40;;;;;;;1.45;78.53;101189.07;108567;1233;97495;-85
2024/01/29 08:05:02;;;;;;;10.50;4.50;;;;;;;1.49;78.62;101188.19;108419;1235;97800;-79
2024/01/29 08:07:29;;;;;;;9.80;3.90;;;;;;;1.52;78.62;101185.91;111285;1232;94791;-82
2024/01/29 08:09:57;;;;;;;;;;;;;;;1.53;78.28;101187.66;109762;1235;96516;-84
2024/01/29 08:12:24;;;;;;;12.70;6.40;;;;;;;1.55;78.32;101190.29;108997;1236;96757;-80
2024/01/29 08:14:55;;;;;;;17.40;7.90;;;;;;;1.60;78.55;101191.84;108270;1235;107266;-82
2024/01/29 08:17:26;;;;;;;15.50;7.40;;;;;;;1.62;78.30;101198.14;108951;1238;96651;-83
2024/01/29 08:19:53;;;;;;;10.90;5.30;;;;;;;1.67;78.50;101200.22;108939;1232;96612;-83
2024/01/29 08:22:19;;;;;;;13.90;6.50;;;;;;;1.70;78.21;101207.75;108352;1236;96546;-82
2024/01/29 08:24:46;;;;;;;21.20;9.50;;;;;;;1.69;78.29;101204.24;108277;1235;96699;-82
2024/01/29 08:27:18;;;;;;;20.90;9.10;;;;;;;1.69;78.09;101203.54;108651;1240;107426;-83
2024/01/29 08:29:45;;;;;;;13.20;6.70;;;;;;;1.72;78.18;101206.69;109738;1235;96512;-82
2024/01/29 08:32:13;;;;;;;9.10;4.50;;;;;;;1.74;78.32;101201.98;109002;1237;97575;-80
2024/01/29 08:34:40;;;;;;;8.40;5.10;;;;;;;1.76;78.31;101203.73;108364;1236;110285;-80
2024/01/29 08:37:07;;;;;;;;;;;;;;;1.79;78.38;101203.88;108735;1235;96571;-82
2024/01/29 08:39:34;;;;;;;10.40;4.30;;;;;;;1.81;78.48;101197.76;108381;1235;97385;-76
2024/01/29 08:42:00;;;;;;;7.70;4.10;;;;;;;1.83;78.15;101201.77;109004;1232;96577;-81
2024/01/29 08:44:27;;;;;;;7.50;4.30;;;;;;;1.86;78.18;101204.56;108292;1235;96565;-81
2024/01/29 08:47:00;;;;;;;9.40;4.60;;;;;;;1.87;78.31;101206.48;109117;1235;96507;-82
2024/01/29 08:49:31;;;;;;;9.40;4.70;;;;;;;1.92;78.35;101204.89;109500;1231;107841;-80
2024/01/29 08:52:02;;;;;;;8.60;4.60;;;;;;;1.97;78.63;101207.69;108928;1236;96571;-79
2024/01/29 08:54:39;;;;;;;14.80;5.40;;;;;;;2.00;78.24;101215.38;108390;1235;97034;-79
2024/01/29 08:57:05;;;;;;;9.30;4.60;;;;;;;2.03;77.98;101220.80;108482;1237;109817;-78
2024/01/29 08:59:34;;;;;;;;;;;;;;;2.05;78.10;101222.36;110475;1235;96325;-78
2024/01/29 09:02:06;;;;;;;6.90;3.60;;;;;;;2.06;78.53;101221.46;108222;1235;107524;-78
2024/01/29 09:04:33;;;;;;;9.50;4.30;;;;;;;2.09;78.27;101223.05;108964;1236;96572;-80
2024/01/29 09:07:03;;;;;;;7.90;4.30;;;;;;;2.10;78.22;101219.73;109692;1236;96770;-78
2024/01/29 09:09:30;;;;;;;8.10;4.60;;;;;;;2.13;78.24;101224.80;108782;1235;97802;-77
2024/01/29 09:11:59;;;;;;;10.10;4.30;;;;;;;2.17;78.16;101226.70;109014;1234;97347;-80
2024/01/29 09:14:27;;;;;;;6.00;4.00;;;;;;;2.21;78.13;101229.67;108648;1235;107381;-80
2024/01/29 09:16:54;;;;;;;6.70;3.80;;;;;;;2.23;77.93;101226.52;110219;1232;96568;-80
2024/01/29 09:19:25;;;;;;;8.00;4.40;;;;;;;2.27;77.99;101224.04;108309;1236;96655;-80
2024/01/29 09:21:54;;;;;;;7.10;3.90;;;;;;;2.30;78.30;101218.60;108556;1237;108283;-81
2024/01/29 09:24:23;;;;;;;9.60;4.70;;;;;;;2.33;78.24;101213.16;108910;1238;96532;-81
2024/01/29 09:32:03;;;;;;;10.80;4.40;;;;;;;2.37;78.21;101210.01;108438;1242;96644;-81
2024/01/29 09:38:37;;;;;;;8.40;4.10;;;;;;;2.43;77.80;101206.83;108574;1239;109885;-78
2024/01/29 09:41:08;;;;;;;8.00;4.20;;;;;;;2.45;77.65;101209.44;108857;1235;96605;-78
2024/01/29 09:43:37;;;;;;;6.60;3.80;;;;;;;2.46;77.92;101208.20;108667;1235;96606;-74
2024/01/29 09:46:04;;;;;;;8.90;5.00;;;;;;;2.50;77.75;101206.08;108482;1237;96620;-80
2024/01/29 09:48:51;;;;;;;8.50;4.40;;;;;;;2.55;77.95;101208.33;109743;1232;97505;-79
2024/01/29 09:51:20;;;;;;;7.60;4.00;;;;;;;2.56;77.90;101213.07;109849;1236;109639;-85
2024/01/29 09:54:03;;;;;;;7.80;4.00;;;;;;;2.61;78.09;101213.21;109178;1236;96579;-81
2024/01/29 09:57:15;;;;;;;8.10;3.70;;;;;;;2.61;78.05;101205.34;108304;1237;108425;-79
2024/01/29 09:59:45;;;;;;;6.10;4.00;;;;;;;2.64;77.93;101199.36;107986;1244;96577;-77
2024/01/29 10:02:12;;;;;;;;;;;;;;;2.67;77.84;101198.10;107883;1240;96637;-78
2024/01/29 10:04:39;;;;;;;6.90;3.80;;;;;;;2.69;77.84;101201.60;108217;1239;96827;-78
2024/01/29 10:07:06;;;;;;;8.00;4.80;;;;;;;2.71;77.75;101203.16;108869;1239;96650;-77
2024/01/29 10:09:33;;;;;;;6.50;3.50;;;;;;;2.73;77.97;101200.00;108232;1247;97268;-77
2024/01/29 10:12:00;;;;;;;9.10;4.70;;;;;;;2.74;77.78;101197.90;108178;1239;96754;-77
2024/01/29 10:14:27;;;;;;;;;;;;;;;2.73;77.61;101201.57;108284;1240;96720;-77
2024/01/29 10:16:54;;;;;;;5.90;3.70;;;;;;;2.73;77.96;101196.50;110851;1237;95401;-78
2024/01/29 10:19:20;;;;;;;7.00;3.90;;;;;;;2.77;77.44;101195.95;107843;1248;96614;-78
2024/01/29 10:21:47;;;;;;;9.10;4.10;;;;;;;2.84;77.76;101196.61;108314;1239;97484;-78
2024/01/29 10:24:15;;;;;;;;;;;;;;;2.92;77.88;101196.38;108638;1236;96631;-80
2024/01/29 10:26:43;;;;;;;7.50;3.50;;;;;;;2.98;77.94;101194.59;109257;1239;96642;-79
2024/01/29 10:29:11;;;;;;;7.40;3.70;;;;;;;3.02;77.90;101194.38;108306;1239;97555;-79
2024/01/29 10:31:38;;;;;;;6.30;3.60;;;;;;;3.03;77.48;101198.75;107848;1240;96813;-79
2024/01/29 10:34:05;;;;;;;8.90;4.00;;;;;;;3.05;77.54;101193.66;108218;1242;96695;-79
2024/01/29 10:36:33;;;;;;;8.40;4.30;;;;;;;3.05;77.69;101192.08;108573;1235;97586;-79
2024/01/29 10:39:01;;;;;;;10.00;4.70;;;;;;;3.10;77.47;101190.10;110842;1235;94748;-79
2024/01/29 10:41:31;;;;;;;8.00;3.90;;;;;;;3.14;77.67;101184.81;108596;1236;96521;-78
2024/01/29 10:44:02;;;;;;;7.40;3.70;;;;;;;3.20;77.87;101180.92;108414;1236;108324;-79
2024/01/29 10:46:34;;;;;;;7.70;4.30;;;;;;;3.24;77.70;101177.55;108981;1233;96520;-71
2024/01/29 10:49:01;;;;;;;7.50;4.40;;;;;;;3.28;77.74;101177.16;108892;1236;97488;-73
2024/01/29 10:51:31;;;;;;;9.60;4.70;;;;;;;3.34;77.68;101172.38;108567;1236;97815;-72
2024/01/29 10:53:59;;;;;;;7.50;3.80;;;;;;;3.38;77.53;101171.81;108387;1236;96657;-73
2024/01/29 10:56:26;;;;;;;7.70;4.00;;;;;;;3.40;77.36;101169.17;108745;1236;107070;-74
2024/01/29 10:58:58;;;;;;;8.00;4.30;;;;;;;3.45;77.49;101167.38;109262;1236;96689;-72
2024/01/29 11:03:35;;;;;;;;;;;;;;;3.55;77.72;101161.83;102280;1292;636118;-73
2024/01/29 11:06:10;;;;;;;6.70;3.70;;;;;;;3.56;77.56;101162.88;104667;1271;94576;-73
2024/01/29 11:08:41;;;;;;;7.00;4.00;;;;;;;3.60;77.43;101161.96;104897;1267;94310;-72
2024/01/29 11:11:11;;;;;;;6.10;3.70;;;;;;;3.61;77.47;101161.77;104428;1270;107253;-72
2024/01/29 11:13:39;;;;;;;7.90;4.30;;;;;;;3.63;77.51;101164.39;105117;1265;96099;-72
2024/01/29 11:16:07;;;;;;;9.10;4.30;;;;;;;3.63;77.21;101162.11;106042;1259;107148;-72
2024/01/29 11:18:36;;;;;;;7.20;4.00;;;;;;;3.66;77.20;101154.02;105876;1260;94215;-73
2024/01/29 11:21:09;;;;;;;8.50;3.90;;;;;;;3.70;77.28;101146.06;105387;1256;94299;-73
2024/01/29 11:23:44;;;;;;;7.20;3.70;;;;;;;3.75;77.45;101143.21;105165;1257;106567;-75
2024/01/29 11:26:15;;;;;;;7.10;4.20;;;;;;;3.76;77.44;101142.14;105904;1257;95070;-74
2024/01/29 11:28:44;;;;;;;8.40;4.00;;;;;;;3.80;77.42;101141.92;107814;1256;107790;-73
2024/01/29 11:31:12;;;;;;;7.10;3.70;;;;;;;3.80;77.22;101138.59;105418;1256;95220;-73
2024/01/29 11:34:07;;;;;;;8.00;3.80;;;;;;;3.84;77.23;101138.02;105513;1259;95227;-73
2024/01/29 11:36:38;;;;;;;7.30;4.40;;;;;;;3.90;77.23;101136.89;105237;1261;109039;-73
2024/01/29 11:39:14;;;;;;;6.00;3.80;;;;;;;3.96;77.08;101134.19;106101;1259;96150;-74
2024/01/29 11:41:48;;;;;;;6.60;3.70;;;;;;;4.01;77.07;101137.98;106930;1256;107412;-73
2024/01/29 11:44:21;;;;;;;7.50;3.80;;;;;;;4.06;77.32;101134.77;106186;1259;95850;-73
2024/01/29 11:46:50;;;;;;;6.00;3.40;;;;;;;4.09;77.17;101136.48;105588;1259;95343;-73